sensor_id;sensor_type;location;lat;lon;timestamp;P1;durP1;ratioP1;P2;durP2;ratioP2
45408;SDS011;31162;51.076;3.784;2023-11-19T00:02:07;17.25;;;5.32;;
45408;SDS011;31162;51.076;3.784;2023-11-19T00:04:37;22.88;;;5.32;;
45408;SDS011;31162;51.076;3.784;2023-11-19T00:07:04;19.83;;;5.20;;
45408;SDS011;31162;51.076;3.784;2023-11-19T00:09:31;21.25;;;5.00;;
45408;SDS011;31162;51.076;3.784;2023-11-19T00:11:58;24.55;;;5.88;;
45408;SDS011;31162;51.076;3.784;2023-11-19T00:14:25;18.15;;;5.28;;
45408;SDS011;31162;51.076;3.784;2023-11-19T00:16:51;21.95;;;4.90;;
45408;SDS011;31162;51.076;3.784;2023-11-19T00:19:17;19.95;;;4.60;;
45408;SDS011;31162;51.076;3.784;2023-11-19T00:21:42;22.02;;;4.55;;
45408;SDS011;31162;51.076;3.784;2023-11-19T00:24:08;26.95;;;4.82;;
45408;SDS011;31162;51.076;3.784;2023-11-19T00:26:34;23.88;;;5.10;;
45408;SDS011;31162;51.076;3.784;2023-11-19T00:29:00;26.35;;;5.40;;
45408;SDS011;31162;51.076;3.784;2023-11-19T00:31:26;23.60;;;5.55;;
45408;SDS011;31162;51.076;3.784;2023-11-19T00:33:52;25.75;;;4.95;;
45408;SDS011;31162;51.076;3.784;2023-11-19T00:36:18;29.13;;;5.95;;
45408;SDS011;31162;51.076;3.784;2023-11-19T00:38:44;23.50;;;5.00;;
45408;SDS011;31162;51.076;3.784;2023-11-19T00:41:10;22.73;;;5.00;;
45408;SDS011;31162;51.076;3.784;2023-11-19T00:43:35;36.10;;;5.65;;
45408;SDS011;31162;51.076;3.784;2023-11-19T00:46:01;28.70;;;5.72;;
45408;SDS011;31162;51.076;3.784;2023-11-19T00:48:28;38.35;;;6.78;;
45408;SDS011;31162;51.076;3.784;2023-11-19T00:50:53;28.02;;;5.68;;
45408;SDS011;31162;51.076;3.784;2023-11-19T00:53:19;34.67;;;7.07;;
45408;SDS011;31162;51.076;3.784;2023-11-19T00:55:45;27.48;;;5.75;;
45408;SDS011;31162;51.076;3.784;2023-11-19T00:58:10;27.90;;;5.95;;
45408;SDS011;31162;51.076;3.784;2023-11-19T01:00:36;32.22;;;6.60;;
45408;SDS011;31162;51.076;3.784;2023-11-19T01:03:01;29.40;;;6.38;;
45408;SDS011;31162;51.076;3.784;2023-11-19T01:05:27;27.55;;;6.22;;
45408;SDS011;31162;51.076;3.784;2023-11-19T01:07:53;24.48;;;5.97;;
45408;SDS011;31162;51.076;3.784;2023-11-19T01:10:19;28.02;;;6.13;;
45408;SDS011;31162;51.076;3.784;2023-11-19T01:12:45;33.15;;;6.13;;
45408;SDS011;31162;51.076;3.784;2023-11-19T01:15:11;31.90;;;6.63;;
45408;SDS011;31162;51.076;3.784;2023-11-19T01:17:38;31.40;;;6.50;;
45408;SDS011;31162;51.076;3.784;2023-11-19T01:20:04;36.83;;;6.97;;
45408;SDS011;31162;51.076;3.784;2023-11-19T01:22:32;30.88;;;5.47;;
45408;SDS011;31162;51.076;3.784;2023-11-19T01:24:57;34.88;;;6.72;;
45408;SDS011;31162;51.076;3.784;2023-11-19T01:27:24;36.28;;;6.13;;
45408;SDS011;31162;51.076;3.784;2023-11-19T01:29:50;33.15;;;6.70;;
45408;SDS011;31162;51.076;3.784;2023-11-19T01:32:15;33.35;;;6.60;;
45408;SDS011;31162;51.076;3.784;2023-11-19T01:34:41;37.50;;;6.28;;
45408;SDS011;31162;51.076;3.784;2023-11-19T01:37:07;37.33;;;6.13;;
45408;SDS011;31162;51.076;3.784;2023-11-19T01:39:35;32.10;;;6.13;;
45408;SDS011;31162;51.076;3.784;2023-11-19T01:42:01;39.40;;;7.55;;
45408;SDS011;31162;51.076;3.784;2023-11-19T01:44:26;30.60;;;6.15;;
45408;SDS011;31162;51.076;3.784;2023-11-19T01:46:52;44.60;;;6.50;;
45408;SDS011;31162;51.076;3.784;2023-11-19T01:49:18;39.05;;;6.85;;
45408;SDS011;31162;51.076;3.784;2023-11-19T01:51:45;45.90;;;7.05;;
45408;SDS011;31162;51.076;3.784;2023-11-19T01:54:12;40.10;;;7.55;;
45408;SDS011;31162;51.076;3.784;2023-11-19T01:56:40;39.97;;;6.97;;
45408;SDS011;31162;51.076;3.784;2023-11-19T01:59:06;40.03;;;6.75;;
45408;SDS011;31162;51.076;3.784;2023-11-19T02:01:34;42.30;;;6.88;;
45408;SDS011;31162;51.076;3.784;2023-11-19T02:04:04;31.73;;;5.85;;
45408;SDS011;31162;51.076;3.784;2023-11-19T02:06:31;42.50;;;6.60;;
45408;SDS011;31162;51.076;3.784;2023-11-19T02:08:59;40.05;;;6.88;;
45408;SDS011;31162;51.076;3.784;2023-11-19T02:11:25;37.75;;;6.78;;
45408;SDS011;31162;51.076;3.784;2023-11-19T02:13:54;39.88;;;7.05;;
45408;SDS011;31162;51.076;3.784;2023-11-19T02:16:21;33.92;;;7.15;;
45408;SDS011;31162;51.076;3.784;2023-11-19T02:18:46;41.35;;;6.93;;
45408;SDS011;31162;51.076;3.784;2023-11-19T02:21:13;39.72;;;7.18;;
45408;SDS011;31162;51.076;3.784;2023-11-19T02:23:40;36.92;;;6.00;;
45408;SDS011;31162;51.076;3.784;2023-11-19T02:28:54;41.67;;;6.80;;
45408;SDS011;31162;51.076;3.784;2023-11-19T02:31:20;39.33;;;6.63;;
45408;SDS011;31162;51.076;3.784;2023-11-19T02:33:47;39.05;;;7.30;;
45408;SDS011;31162;51.076;3.784;2023-11-19T02:36:15;35.17;;;6.32;;
45408;SDS011;31162;51.076;3.784;2023-11-19T02:38:41;43.13;;;7.53;;
45408;SDS011;31162;51.076;3.784;2023-11-19T02:41:07;38.95;;;6.47;;
45408;SDS011;31162;51.076;3.784;2023-11-19T02:43:34;34.35;;;6.03;;
45408;SDS011;31162;51.076;3.784;2023-11-19T02:46:02;38.72;;;7.20;;
45408;SDS011;31162;51.076;3.784;2023-11-19T02:48:32;41.60;;;8.57;;
45408;SDS011;31162;51.076;3.784;2023-11-19T02:50:58;36.33;;;7.18;;
45408;SDS011;31162;51.076;3.784;2023-11-19T02:53:23;44.60;;;7.47;;
45408;SDS011;31162;51.076;3.784;2023-11-19T02:55:52;40.53;;;6.45;;
45408;SDS011;31162;51.076;3.784;2023-11-19T02:58:18;42.05;;;7.75;;
45408;SDS011;31162;51.076;3.784;2023-11-19T03:00:48;42.28;;;7.45;;
45408;SDS011;31162;51.076;3.784;2023-11-19T03:03:22;46.15;;;7.00;;
45408;SDS011;31162;51.076;3.784;2023-11-19T03:05:56;46.47;;;7.25;;
45408;SDS011;31162;51.076;3.784;2023-11-19T03:08:22;44.50;;;7.82;;
45408;SDS011;31162;51.076;3.784;2023-11-19T03:10:48;50.63;;;7.40;;
45408;SDS011;31162;51.076;3.784;2023-11-19T03:13:14;43.70;;;6.70;;
45408;SDS011;31162;51.076;3.784;2023-11-19T03:15:40;44.42;;;7.75;;
45408;SDS011;31162;51.076;3.784;2023-11-19T03:18:06;41.15;;;6.90;;
45408;SDS011;31162;51.076;3.784;2023-11-19T03:20:32;39.42;;;6.88;;
45408;SDS011;31162;51.076;3.784;2023-11-19T03:22:58;37.30;;;6.60;;
45408;SDS011;31162;51.076;3.784;2023-11-19T03:25:26;37.42;;;6.97;;
45408;SDS011;31162;51.076;3.784;2023-11-19T03:30:23;40.60;;;6.85;;
45408;SDS011;31162;51.076;3.784;2023-11-19T03:32:49;45.58;;;7.68;;
45408;SDS011;31162;51.076;3.784;2023-11-19T03:35:15;40.58;;;7.07;;
45408;SDS011;31162;51.076;3.784;2023-11-19T03:37:41;33.35;;;6.18;;
45408;SDS011;31162;51.076;3.784;2023-11-19T03:40:08;43.72;;;7.68;;
45408;SDS011;31162;51.076;3.784;2023-11-19T03:42:35;42.28;;;6.53;;
45408;SDS011;31162;51.076;3.784;2023-11-19T03:45:00;39.63;;;6.82;;
45408;SDS011;31162;51.076;3.784;2023-11-19T03:47:28;44.35;;;8.18;;
45408;SDS011;31162;51.076;3.784;2023-11-19T03:49:54;41.15;;;7.43;;
45408;SDS011;31162;51.076;3.784;2023-11-19T03:52:20;41.58;;;7.10;;
45408;SDS011;31162;51.076;3.784;2023-11-19T03:54:45;39.75;;;6.90;;
45408;SDS011;31162;51.076;3.784;2023-11-19T03:57:12;37.20;;;7.25;;
45408;SDS011;31162;51.076;3.784;2023-11-19T03:59:38;37.22;;;6.78;;
45408;SDS011;31162;51.076;3.784;2023-11-19T04:02:04;40.65;;;7.18;;
45408;SDS011;31162;51.076;3.784;2023-11-19T04:04:30;35.25;;;6.13;;
45408;SDS011;31162;51.076;3.784;2023-11-19T04:06:56;38.45;;;6.38;;
45408;SDS011;31162;51.076;3.784;2023-11-19T04:09:21;46.10;;;7.55;;
45408;SDS011;31162;51.076;3.784;2023-11-19T04:11:47;40.90;;;6.80;;
45408;SDS011;31162;51.076;3.784;2023-11-19T04:14:13;42.10;;;7.47;;
45408;SDS011;31162;51.076;3.784;2023-11-19T04:16:39;37.42;;;6.93;;
45408;SDS011;31162;51.076;3.784;2023-11-19T04:19:05;40.80;;;6.85;;
45408;SDS011;31162;51.076;3.784;2023-11-19T04:21:31;36.85;;;6.40;;
45408;SDS011;31162;51.076;3.784;2023-11-19T04:23:57;41.05;;;7.47;;
45408;SDS011;31162;51.076;3.784;2023-11-19T04:26:23;44.38;;;8.70;;
45408;SDS011;31162;51.076;3.784;2023-11-19T04:28:49;44.88;;;7.22;;
45408;SDS011;31162;51.076;3.784;2023-11-19T04:31:15;49.13;;;8.05;;
45408;SDS011;31162;51.076;3.784;2023-11-19T04:33:41;45.35;;;6.70;;
45408;SDS011;31162;51.076;3.784;2023-11-19T04:36:08;44.47;;;7.35;;
45408;SDS011;31162;51.076;3.784;2023-11-19T04:38:34;43.97;;;8.20;;
45408;SDS011;31162;51.076;3.784;2023-11-19T04:41:00;41.75;;;6.45;;
45408;SDS011;31162;51.076;3.784;2023-11-19T04:43:26;44.47;;;6.90;;
45408;SDS011;31162;51.076;3.784;2023-11-19T04:45:51;38.53;;;6.90;;
45408;SDS011;31162;51.076;3.784;2023-11-19T04:48:17;37.67;;;7.95;;
45408;SDS011;31162;51.076;3.784;2023-11-19T04:50:43;41.20;;;6.40;;
45408;SDS011;31162;51.076;3.784;2023-11-19T04:53:08;42.67;;;7.45;;
45408;SDS011;31162;51.076;3.784;2023-11-19T04:55:34;40.70;;;6.90;;
45408;SDS011;31162;51.076;3.784;2023-11-19T04:57:59;35.53;;;6.90;;
45408;SDS011;31162;51.076;3.784;2023-11-19T05:00:25;35.97;;;7.05;;
45408;SDS011;31162;51.076;3.784;2023-11-19T05:02:51;35.50;;;6.75;;
45408;SDS011;31162;51.076;3.784;2023-11-19T05:05:16;40.53;;;6.55;;
45408;SDS011;31162;51.076;3.784;2023-11-19T05:07:43;40.08;;;7.05;;
45408;SDS011;31162;51.076;3.784;2023-11-19T05:10:08;36.60;;;7.13;;
45408;SDS011;31162;51.076;3.784;2023-11-19T05:12:34;44.38;;;9.32;;
45408;SDS011;31162;51.076;3.784;2023-11-19T05:15:00;49.15;;;9.98;;
45408;SDS011;31162;51.076;3.784;2023-11-19T05:17:26;39.20;;;9.13;;
45408;SDS011;31162;51.076;3.784;2023-11-19T05:19:51;42.53;;;7.35;;
45408;SDS011;31162;51.076;3.784;2023-11-19T05:22:17;42.92;;;7.75;;
45408;SDS011;31162;51.076;3.784;2023-11-19T05:24:43;42.05;;;7.90;;
45408;SDS011;31162;51.076;3.784;2023-11-19T05:27:09;43.10;;;6.53;;
45408;SDS011;31162;51.076;3.784;2023-11-19T05:29:36;40.40;;;7.13;;
45408;SDS011;31162;51.076;3.784;2023-11-19T05:32:04;44.35;;;7.00;;
45408;SDS011;31162;51.076;3.784;2023-11-19T05:34:30;41.40;;;6.97;;
45408;SDS011;31162;51.076;3.784;2023-11-19T05:36:56;43.40;;;7.55;;
45408;SDS011;31162;51.076;3.784;2023-11-19T05:39:22;42.97;;;7.13;;
45408;SDS011;31162;51.076;3.784;2023-11-19T05:41:48;36.13;;;6.90;;
45408;SDS011;31162;51.076;3.784;2023-11-19T05:44:13;38.17;;;7.15;;
45408;SDS011;31162;51.076;3.784;2023-11-19T05:46:39;35.83;;;7.38;;
45408;SDS011;31162;51.076;3.784;2023-11-19T05:49:07;32.53;;;7.45;;
45408;SDS011;31162;51.076;3.784;2023-11-19T05:51:40;40.22;;;7.28;;
45408;SDS011;31162;51.076;3.784;2023-11-19T05:54:09;47.70;;;7.70;;
45408;SDS011;31162;51.076;3.784;2023-11-19T05:56:35;42.80;;;7.38;;
45408;SDS011;31162;51.076;3.784;2023-11-19T05:59:01;46.53;;;6.97;;
45408;SDS011;31162;51.076;3.784;2023-11-19T06:01:32;41.13;;;7.10;;
45408;SDS011;31162;51.076;3.784;2023-11-19T06:04:01;41.33;;;6.95;;
45408;SDS011;31162;51.076;3.784;2023-11-19T06:06:27;39.40;;;6.35;;
45408;SDS011;31162;51.076;3.784;2023-11-19T06:08:53;37.95;;;6.78;;
45408;SDS011;31162;51.076;3.784;2023-11-19T06:11:20;31.58;;;6.20;;
45408;SDS011;31162;51.076;3.784;2023-11-19T06:13:46;39.53;;;7.07;;
45408;SDS011;31162;51.076;3.784;2023-11-19T06:16:12;34.55;;;6.20;;
45408;SDS011;31162;51.076;3.784;2023-11-19T06:18:38;39.05;;;6.63;;
45408;SDS011;31162;51.076;3.784;2023-11-19T06:21:06;37.30;;;6.68;;
45408;SDS011;31162;51.076;3.784;2023-11-19T06:23:32;33.85;;;6.47;;
45408;SDS011;31162;51.076;3.784;2023-11-19T06:25:57;41.08;;;6.85;;
45408;SDS011;31162;51.076;3.784;2023-11-19T06:28:23;38.65;;;6.63;;
45408;SDS011;31162;51.076;3.784;2023-11-19T06:30:50;40.00;;;6.28;;
45408;SDS011;31162;51.076;3.784;2023-11-19T06:33:15;38.30;;;7.38;;
45408;SDS011;31162;51.076;3.784;2023-11-19T06:35:41;37.80;;;6.60;;
45408;SDS011;31162;51.076;3.784;2023-11-19T06:38:07;43.03;;;10.35;;
45408;SDS011;31162;51.076;3.784;2023-11-19T06:40:32;35.05;;;6.35;;
45408;SDS011;31162;51.076;3.784;2023-11-19T06:43:00;36.65;;;6.53;;
45408;SDS011;31162;51.076;3.784;2023-11-19T06:45:25;35.75;;;5.63;;
45408;SDS011;31162;51.076;3.784;2023-11-19T06:47:51;35.85;;;6.30;;
45408;SDS011;31162;51.076;3.784;2023-11-19T06:50:17;38.95;;;6.13;;
45408;SDS011;31162;51.076;3.784;2023-11-19T06:52:42;38.30;;;7.82;;
45408;SDS011;31162;51.076;3.784;2023-11-19T06:55:08;40.03;;;6.97;;
45408;SDS011;31162;51.076;3.784;2023-11-19T06:57:34;31.33;;;5.95;;
45408;SDS011;31162;51.076;3.784;2023-11-19T07:00:00;31.52;;;6.10;;
45408;SDS011;31162;51.076;3.784;2023-11-19T07:02:25;40.50;;;8.45;;
45408;SDS011;31162;51.076;3.784;2023-11-19T07:04:51;40.05;;;6.80;;
45408;SDS011;31162;51.076;3.784;2023-11-19T07:07:17;38.80;;;6.95;;
45408;SDS011;31162;51.076;3.784;2023-11-19T07:09:42;40.00;;;6.00;;
45408;SDS011;31162;51.076;3.784;2023-11-19T07:12:08;36.72;;;6.90;;
45408;SDS011;31162;51.076;3.784;2023-11-19T07:14:34;39.50;;;6.95;;
45408;SDS011;31162;51.076;3.784;2023-11-19T07:17:00;38.97;;;6.95;;
45408;SDS011;31162;51.076;3.784;2023-11-19T07:19:26;37.22;;;6.07;;
45408;SDS011;31162;51.076;3.784;2023-11-19T07:21:51;38.65;;;6.28;;
45408;SDS011;31162;51.076;3.784;2023-11-19T07:24:19;40.13;;;10.05;;
45408;SDS011;31162;51.076;3.784;2023-11-19T07:26:46;35.03;;;9.50;;
45408;SDS011;31162;51.076;3.784;2023-11-19T07:29:12;35.30;;;5.97;;
45408;SDS011;31162;51.076;3.784;2023-11-19T07:31:38;40.33;;;6.47;;
45408;SDS011;31162;51.076;3.784;2023-11-19T07:34:04;34.08;;;5.93;;
45408;SDS011;31162;51.076;3.784;2023-11-19T07:36:31;44.47;;;7.47;;
45408;SDS011;31162;51.076;3.784;2023-11-19T07:38:57;39.65;;;7.13;;
45408;SDS011;31162;51.076;3.784;2023-11-19T07:41:23;38.75;;;7.03;;
45408;SDS011;31162;51.076;3.784;2023-11-19T07:43:50;40.20;;;6.18;;
45408;SDS011;31162;51.076;3.784;2023-11-19T07:46:16;40.53;;;7.32;;
45408;SDS011;31162;51.076;3.784;2023-11-19T07:48:45;39.22;;;6.13;;
45408;SDS011;31162;51.076;3.784;2023-11-19T07:51:14;35.08;;;7.32;;
45408;SDS011;31162;51.076;3.784;2023-11-19T07:53:40;41.45;;;6.30;;
45408;SDS011;31162;51.076;3.784;2023-11-19T07:56:06;38.67;;;6.75;;
45408;SDS011;31162;51.076;3.784;2023-11-19T07:58:33;40.60;;;6.57;;
45408;SDS011;31162;51.076;3.784;2023-11-19T08:00:59;41.55;;;8.05;;
45408;SDS011;31162;51.076;3.784;2023-11-19T08:03:25;36.83;;;8.18;;
45408;SDS011;31162;51.076;3.784;2023-11-19T08:05:50;40.97;;;7.75;;
45408;SDS011;31162;51.076;3.784;2023-11-19T08:08:16;29.77;;;6.32;;
45408;SDS011;31162;51.076;3.784;2023-11-19T08:10:42;32.65;;;6.18;;
45408;SDS011;31162;51.076;3.784;2023-11-19T08:13:09;37.28;;;6.95;;
45408;SDS011;31162;51.076;3.784;2023-11-19T08:15:36;35.08;;;6.93;;
45408;SDS011;31162;51.076;3.784;2023-11-19T08:18:01;38.65;;;11.88;;
45408;SDS011;31162;51.076;3.784;2023-11-19T08:20:27;36.83;;;7.13;;
45408;SDS011;31162;51.076;3.784;2023-11-19T08:22:53;34.15;;;6.20;;
45408;SDS011;31162;51.076;3.784;2023-11-19T08:25:18;32.97;;;6.97;;
45408;SDS011;31162;51.076;3.784;2023-11-19T08:27:44;30.90;;;5.85;;
45408;SDS011;31162;51.076;3.784;2023-11-19T08:30:10;35.50;;;6.20;;
45408;SDS011;31162;51.076;3.784;2023-11-19T08:32:36;28.90;;;6.05;;
45408;SDS011;31162;51.076;3.784;2023-11-19T08:35:02;34.47;;;7.20;;
45408;SDS011;31162;51.076;3.784;2023-11-19T08:37:27;29.50;;;6.35;;
45408;SDS011;31162;51.076;3.784;2023-11-19T08:39:53;31.05;;;6.20;;
45408;SDS011;31162;51.076;3.784;2023-11-19T08:42:19;36.42;;;9.88;;
45408;SDS011;31162;51.076;3.784;2023-11-19T08:44:48;35.83;;;7.10;;
45408;SDS011;31162;51.076;3.784;2023-11-19T08:47:15;27.42;;;6.15;;
45408;SDS011;31162;51.076;3.784;2023-11-19T08:49:43;28.40;;;5.70;;
45408;SDS011;31162;51.076;3.784;2023-11-19T08:52:09;39.50;;;6.65;;
45408;SDS011;31162;51.076;3.784;2023-11-19T08:54:35;28.25;;;5.95;;
45408;SDS011;31162;51.076;3.784;2023-11-19T08:57:07;27.52;;;7.57;;
45408;SDS011;31162;51.076;3.784;2023-11-19T08:59:34;26.92;;;5.90;;
45408;SDS011;31162;51.076;3.784;2023-11-19T09:01:59;33.10;;;6.45;;
45408;SDS011;31162;51.076;3.784;2023-11-19T09:04:25;29.55;;;5.82;;
45408;SDS011;31162;51.076;3.784;2023-11-19T09:06:51;31.30;;;6.45;;
45408;SDS011;31162;51.076;3.784;2023-11-19T09:09:16;27.00;;;5.43;;
45408;SDS011;31162;51.076;3.784;2023-11-19T09:11:42;30.20;;;6.10;;
45408;SDS011;31162;51.076;3.784;2023-11-19T09:14:08;26.88;;;5.80;;
45408;SDS011;31162;51.076;3.784;2023-11-19T09:16:33;26.73;;;6.05;;
45408;SDS011;31162;51.076;3.784;2023-11-19T09:18:59;36.42;;;5.85;;
45408;SDS011;31162;51.076;3.784;2023-11-19T09:21:27;27.58;;;5.80;;
45408;SDS011;31162;51.076;3.784;2023-11-19T09:23:54;31.77;;;6.25;;
45408;SDS011;31162;51.076;3.784;2023-11-19T09:26:20;30.20;;;5.93;;
45408;SDS011;31162;51.076;3.784;2023-11-19T09:28:45;34.05;;;6.82;;
45408;SDS011;31162;51.076;3.784;2023-11-19T09:31:15;32.67;;;6.32;;
45408;SDS011;31162;51.076;3.784;2023-11-19T09:33:41;37.05;;;6.40;;
45408;SDS011;31162;51.076;3.784;2023-11-19T09:36:07;30.02;;;6.47;;
45408;SDS011;31162;51.076;3.784;2023-11-19T09:38:33;24.58;;;5.43;;
45408;SDS011;31162;51.076;3.784;2023-11-19T09:41:03;26.42;;;6.45;;
45408;SDS011;31162;51.076;3.784;2023-11-19T09:43:34;30.38;;;6.03;;
45408;SDS011;31162;51.076;3.784;2023-11-19T09:46:03;28.85;;;4.65;;
45408;SDS011;31162;51.076;3.784;2023-11-19T09:48:36;27.17;;;5.13;;
45408;SDS011;31162;51.076;3.784;2023-11-19T09:51:04;25.42;;;4.97;;
45408;SDS011;31162;51.076;3.784;2023-11-19T09:53:30;22.60;;;4.82;;
45408;SDS011;31162;51.076;3.784;2023-11-19T09:55:56;16.95;;;4.80;;
45408;SDS011;31162;51.076;3.784;2023-11-19T09:58:30;21.77;;;6.15;;
45408;SDS011;31162;51.076;3.784;2023-11-19T10:00:57;19.05;;;4.93;;
45408;SDS011;31162;51.076;3.784;2023-11-19T10:03:24;23.35;;;5.07;;
45408;SDS011;31162;51.076;3.784;2023-11-19T10:05:55;22.48;;;4.68;;
45408;SDS011;31162;51.076;3.784;2023-11-19T10:08:22;23.00;;;4.72;;
45408;SDS011;31162;51.076;3.784;2023-11-19T10:10:48;24.50;;;5.47;;
45408;SDS011;31162;51.076;3.784;2023-11-19T10:13:14;25.00;;;4.40;;
45408;SDS011;31162;51.076;3.784;2023-11-19T10:15:39;23.70;;;5.05;;
45408;SDS011;31162;51.076;3.784;2023-11-19T10:18:05;19.63;;;3.97;;
45408;SDS011;31162;51.076;3.784;2023-11-19T10:20:37;23.60;;;6.60;;
45408;SDS011;31162;51.076;3.784;2023-11-19T10:23:06;19.58;;;4.35;;
45408;SDS011;31162;51.076;3.784;2023-11-19T10:25:32;26.63;;;4.97;;
45408;SDS011;31162;51.076;3.784;2023-11-19T10:27:59;23.48;;;4.78;;
45408;SDS011;31162;51.076;3.784;2023-11-19T10:30:29;21.98;;;6.03;;
45408;SDS011;31162;51.076;3.784;2023-11-19T10:33:08;18.08;;;3.97;;
45408;SDS011;31162;51.076;3.784;2023-11-19T10:35:36;19.70;;;5.18;;
45408;SDS011;31162;51.076;3.784;2023-11-19T10:38:17;26.17;;;5.63;;
45408;SDS011;31162;51.076;3.784;2023-11-19T10:40:43;22.98;;;6.55;;
45408;SDS011;31162;51.076;3.784;2023-11-19T10:43:09;23.20;;;4.72;;
45408;SDS011;31162;51.076;3.784;2023-11-19T10:45:36;28.63;;;4.95;;
45408;SDS011;31162;51.076;3.784;2023-11-19T10:48:03;20.65;;;4.47;;
45408;SDS011;31162;51.076;3.784;2023-11-19T10:50:31;27.98;;;5.28;;
45408;SDS011;31162;51.076;3.784;2023-11-19T10:53:01;19.27;;;4.10;;
45408;SDS011;31162;51.076;3.784;2023-11-19T10:55:32;24.65;;;4.68;;
45408;SDS011;31162;51.076;3.784;2023-11-19T10:58:03;26.25;;;5.68;;
45408;SDS011;31162;51.076;3.784;2023-11-19T11:00:31;19.38;;;4.95;;
45408;SDS011;31162;51.076;3.784;2023-11-19T11:03:05;19.38;;;4.80;;
45408;SDS011;31162;51.076;3.784;2023-11-19T11:05:45;17.85;;;4.63;;
45408;SDS011;31162;51.076;3.784;2023-11-19T11:08:12;19.98;;;4.55;;
45408;SDS011;31162;51.076;3.784;2023-11-19T11:10:45;22.17;;;4.78;;
45408;SDS011;31162;51.076;3.784;2023-11-19T11:13:20;20.98;;;5.40;;
45408;SDS011;31162;51.076;3.784;2023-11-19T11:15:48;17.42;;;4.95;;
45408;SDS011;31162;51.076;3.784;2023-11-19T11:18:15;20.38;;;4.35;;
45408;SDS011;31162;51.076;3.784;2023-11-19T11:20:44;19.73;;;4.05;;
45408;SDS011;31162;51.076;3.784;2023-11-19T11:31:08;18.33;;;4.40;;
45408;SDS011;31162;51.076;3.784;2023-11-19T11:33:48;21.35;;;4.38;;
45408;SDS011;31162;51.076;3.784;2023-11-19T11:36:20;22.05;;;6.03;;
45408;SDS011;31162;51.076;3.784;2023-11-19T11:38:50;24.15;;;5.07;;
45408;SDS011;31162;51.076;3.784;2023-11-19T11:41:17;23.73;;;4.13;;
45408;SDS011;31162;51.076;3.784;2023-11-19T11:49:07;23.77;;;5.40;;
45408;SDS011;31162;51.076;3.784;2023-11-19T11:54:30;28.60;;;5.35;;
45408;SDS011;31162;51.076;3.784;2023-11-19T11:57:02;27.50;;;5.55;;
45408;SDS011;31162;51.076;3.784;2023-11-19T12:04:42;24.25;;;5.47;;
45408;SDS011;31162;51.076;3.784;2023-11-19T12:07:15;28.67;;;5.15;;
45408;SDS011;31162;51.076;3.784;2023-11-19T12:09:46;31.67;;;5.75;;
45408;SDS011;31162;51.076;3.784;2023-11-19T12:12:20;24.90;;;5.03;;
45408;SDS011;31162;51.076;3.784;2023-11-19T12:15:08;23.55;;;4.65;;
45408;SDS011;31162;51.076;3.784;2023-11-19T12:17:37;24.08;;;4.97;;
45408;SDS011;31162;51.076;3.784;2023-11-19T12:20:05;25.38;;;5.45;;
45408;SDS011;31162;51.076;3.784;2023-11-19T12:22:35;25.35;;;4.88;;
45408;SDS011;31162;51.076;3.784;2023-11-19T12:25:04;22.77;;;4.45;;
45408;SDS011;31162;51.076;3.784;2023-11-19T12:27:31;24.00;;;5.57;;
45408;SDS011;31162;51.076;3.784;2023-11-19T12:29:59;27.13;;;5.85;;
45408;SDS011;31162;51.076;3.784;2023-11-19T12:32:25;25.25;;;4.68;;
45408;SDS011;31162;51.076;3.784;2023-11-19T12:34:50;18.85;;;4.93;;
45408;SDS011;31162;51.076;3.784;2023-11-19T12:37:16;24.10;;;5.13;;
45408;SDS011;31162;51.076;3.784;2023-11-19T12:39:42;26.55;;;4.38;;
45408;SDS011;31162;51.076;3.784;2023-11-19T12:42:08;21.35;;;4.40;;
45408;SDS011;31162;51.076;3.784;2023-11-19T12:44:34;18.58;;;4.97;;
45408;SDS011;31162;51.076;3.784;2023-11-19T12:47:03;22.70;;;4.38;;
45408;SDS011;31162;51.076;3.784;2023-11-19T12:49:31;22.75;;;5.32;;
45408;SDS011;31162;51.076;3.784;2023-11-19T12:52:00;23.33;;;5.00;;
45408;SDS011;31162;51.076;3.784;2023-11-19T12:54:35;23.15;;;4.15;;
45408;SDS011;31162;51.076;3.784;2023-11-19T12:57:02;27.20;;;5.68;;
45408;SDS011;31162;51.076;3.784;2023-11-19T12:59:29;20.83;;;4.50;;
45408;SDS011;31162;51.076;3.784;2023-11-19T13:01:59;24.92;;;4.97;;
45408;SDS011;31162;51.076;3.784;2023-11-19T13:04:28;27.02;;;5.28;;
45408;SDS011;31162;51.076;3.784;2023-11-19T13:06:58;26.70;;;5.88;;
45408;SDS011;31162;51.076;3.784;2023-11-19T13:09:25;27.25;;;5.75;;
45408;SDS011;31162;51.076;3.784;2023-11-19T13:11:51;23.95;;;4.65;;
45408;SDS011;31162;51.076;3.784;2023-11-19T13:14:18;27.45;;;4.78;;
45408;SDS011;31162;51.076;3.784;2023-11-19T13:16:45;32.17;;;5.40;;
45408;SDS011;31162;51.076;3.784;2023-11-19T13:19:12;26.02;;;4.57;;
45408;SDS011;31162;51.076;3.784;2023-11-19T13:21:38;23.77;;;5.13;;
45408;SDS011;31162;51.076;3.784;2023-11-19T13:24:05;21.15;;;4.65;;
45408;SDS011;31162;51.076;3.784;2023-11-19T13:26:31;21.35;;;4.22;;
45408;SDS011;31162;51.076;3.784;2023-11-19T13:28:57;19.80;;;3.97;;
45408;SDS011;31162;51.076;3.784;2023-11-19T13:31:23;23.90;;;4.85;;
45408;SDS011;31162;51.076;3.784;2023-11-19T13:33:48;20.23;;;4.13;;
45408;SDS011;31162;51.076;3.784;2023-11-19T13:36:14;19.13;;;4.57;;
45408;SDS011;31162;51.076;3.784;2023-11-19T13:38:40;22.75;;;5.03;;
45408;SDS011;31162;51.076;3.784;2023-11-19T13:41:12;23.27;;;4.63;;
45408;SDS011;31162;51.076;3.784;2023-11-19T13:43:38;20.95;;;4.85;;
45408;SDS011;31162;51.076;3.784;2023-11-19T13:46:04;29.88;;;5.57;;
45408;SDS011;31162;51.076;3.784;2023-11-19T13:48:30;28.75;;;5.80;;
45408;SDS011;31162;51.076;3.784;2023-11-19T13:50:56;28.23;;;6.68;;
45408;SDS011;31162;51.076;3.784;2023-11-19T13:53:22;23.92;;;6.95;;
45408;SDS011;31162;51.076;3.784;2023-11-19T13:55:48;26.77;;;4.97;;
45408;SDS011;31162;51.076;3.784;2023-11-19T13:58:15;26.25;;;5.40;;
45408;SDS011;31162;51.076;3.784;2023-11-19T14:00:41;24.67;;;4.68;;
45408;SDS011;31162;51.076;3.784;2023-11-19T14:03:07;32.30;;;6.68;;
45408;SDS011;31162;51.076;3.784;2023-11-19T14:05:34;28.85;;;4.93;;
45408;SDS011;31162;51.076;3.784;2023-11-19T14:08:00;20.95;;;4.55;;
45408;SDS011;31162;51.076;3.784;2023-11-19T14:10:26;26.55;;;4.88;;
45408;SDS011;31162;51.076;3.784;2023-11-19T14:12:52;22.40;;;4.65;;
45408;SDS011;31162;51.076;3.784;2023-11-19T14:15:18;22.45;;;4.72;;
45408;SDS011;31162;51.076;3.784;2023-11-19T14:17:43;29.40;;;5.05;;
45408;SDS011;31162;51.076;3.784;2023-11-19T14:20:09;29.02;;;5.75;;
45408;SDS011;31162;51.076;3.784;2023-11-19T14:22:41;28.33;;;4.72;;
45408;SDS011;31162;51.076;3.784;2023-11-19T14:25:08;29.20;;;5.18;;
45408;SDS011;31162;51.076;3.784;2023-11-19T14:27:38;26.35;;;5.13;;
45408;SDS011;31162;51.076;3.784;2023-11-19T14:30:05;21.42;;;4.78;;
45408;SDS011;31162;51.076;3.784;2023-11-19T14:32:33;23.20;;;5.47;;
45408;SDS011;31162;51.076;3.784;2023-11-19T14:35:00;20.27;;;4.07;;
45408;SDS011;31162;51.076;3.784;2023-11-19T14:37:26;28.65;;;5.25;;
45408;SDS011;31162;51.076;3.784;2023-11-19T14:39:51;24.55;;;4.45;;
45408;SDS011;31162;51.076;3.784;2023-11-19T14:42:18;24.50;;;5.45;;
45408;SDS011;31162;51.076;3.784;2023-11-19T14:44:43;26.17;;;4.63;;
45408;SDS011;31162;51.076;3.784;2023-11-19T14:47:09;28.27;;;4.57;;
45408;SDS011;31162;51.076;3.784;2023-11-19T14:49:35;33.20;;;5.53;;
45408;SDS011;31162;51.076;3.784;2023-11-19T14:52:02;23.38;;;4.57;;
45408;SDS011;31162;51.076;3.784;2023-11-19T14:54:28;22.52;;;4.63;;
45408;SDS011;31162;51.076;3.784;2023-11-19T14:56:54;24.70;;;5.18;;
45408;SDS011;31162;51.076;3.784;2023-11-19T14:59:20;27.33;;;6.15;;